Skip Navigation LinksHome page > Tools > METAR decoder Skip Navigation Links

METAR decoder



Chicago O'Hare Intl, Chicago

For information only: do not use for flight planning or navigation.
Latest weather
Observation time Monday, October 24, 2016 7:51 PM CDT
Local time Monday, October 24, 2016 8:21 PM CDT
Flight conditions Visual Meteorological Conditions
Wind direction East (90°)
Wind speed 3 mph
Visibility 10 mi.
Sky condition
Ceiling unlimited
Cloud layer few clouds 25,000 ft.
Temperature 48°F
Dewpoint 37°F
Altimeter 30.39 in.Hg
Derived measurements
Relative humidity 66%
Wind chill 47°F
Density altitude -487 ft.
Sea-level pressure 30.40 in.Hg
Automated weather observing station with precipitation discriminator.
METAR KORD 250051Z 09003KT 10SM FEW250 09/03 A3039 RMK AO2 SLP295 T00890028

InnerDrive.Weather 4.0.5722.1 Release CLR 4.0.30319.34209
Copyright ©2015 Inner Drive Technology. All rights reserved. Portions Copyright ©1986-2015 David Braverman.

Find weather

Site navigation

Skip Navigation Links

Place info

Page info

PayPal - The safer, easier way to pay online!

Return home.

Copyright ©2016 Inner Drive Technology. Purveyors of fine, hand-crafted computer software. Page printed 2016-10-25T01:21:56 UTC.